createdAt,value
2018-08-22T00:01:36.370Z,16.50
2018-08-22T00:04:40.481Z,16.50
2018-08-22T00:07:44.587Z,16.60
2018-08-22T00:10:48.701Z,16.70
2018-08-22T00:13:52.868Z,16.70
2018-08-22T00:16:56.983Z,16.70
2018-08-22T00:20:01.316Z,16.70
2018-08-22T00:23:05.769Z,16.80
2018-08-22T00:26:09.917Z,17.00
2018-08-22T00:29:14.039Z,17.00
2018-08-22T00:32:18.180Z,17.10
2018-08-22T00:35:22.281Z,17.00
2018-08-22T00:38:26.452Z,16.90
2018-08-22T00:41:30.555Z,17.10
2018-08-22T00:44:34.675Z,17.10
2018-08-22T00:47:38.784Z,17.20
2018-08-22T00:50:42.907Z,17.10
2018-08-22T00:53:47.041Z,17.10
2018-08-22T00:56:51.185Z,17.00
2018-08-22T00:59:55.314Z,17.10
2018-08-22T01:02:59.450Z,17.00
2018-08-22T01:06:03.551Z,16.90
2018-08-22T01:09:08.694Z,16.90
2018-08-22T01:12:12.816Z,17.00
2018-08-22T01:15:17.431Z,17.00
2018-08-22T01:18:22.504Z,17.10
2018-08-22T01:21:26.668Z,17.10
2018-08-22T01:24:30.784Z,17.00
2018-08-22T01:27:34.975Z,17.00
2018-08-22T01:30:39.058Z,16.90
2018-08-22T01:33:43.186Z,17.00
2018-08-22T01:36:47.303Z,16.90
2018-08-22T01:39:51.454Z,16.90
2018-08-22T01:42:55.608Z,17.00
2018-08-22T01:45:59.817Z,17.00
2018-08-22T01:49:03.930Z,17.00
2018-08-22T01:52:08.250Z,17.00
2018-08-22T01:55:12.411Z,17.00
2018-08-22T01:58:16.520Z,17.10
2018-08-22T02:01:20.651Z,17.10
2018-08-22T02:04:25.065Z,17.10
2018-08-22T02:07:29.165Z,17.10
2018-08-22T02:10:33.289Z,17.10
2018-08-22T02:13:37.387Z,17.10
2018-08-22T02:16:41.670Z,17.20
2018-08-22T02:19:45.765Z,17.20
2018-08-22T02:22:49.927Z,17.20
2018-08-22T02:25:54.083Z,17.20
2018-08-22T02:28:58.217Z,17.20
2018-08-22T02:32:02.389Z,17.20
2018-08-22T02:35:06.541Z,17.20
2018-08-22T02:38:10.713Z,17.30
2018-08-22T02:41:14.816Z,17.30
2018-08-22T02:44:18.932Z,17.30
2018-08-22T02:47:23.135Z,17.30
2018-08-22T02:50:27.233Z,17.30
2018-08-22T02:53:31.354Z,17.30
2018-08-22T02:56:35.478Z,17.30
2018-08-22T02:59:39.650Z,17.30
2018-08-22T03:02:43.769Z,17.30
2018-08-22T03:05:47.956Z,17.20
2018-08-22T03:08:52.077Z,17.30
2018-08-22T03:11:56.184Z,17.30
2018-08-22T03:15:00.358Z,17.20
2018-08-22T03:18:04.519Z,17.20
2018-08-22T03:21:08.927Z,17.20
2018-08-22T03:24:13.362Z,17.30
2018-08-22T03:27:17.497Z,17.30
2018-08-22T03:30:22.210Z,17.30
2018-08-22T03:33:26.351Z,17.20
2018-08-22T03:36:30.523Z,17.20
2018-08-22T03:39:34.611Z,17.20
2018-08-22T03:42:38.813Z,17.10
2018-08-22T03:45:42.951Z,17.20
2018-08-22T03:48:47.173Z,17.10
2018-08-22T03:51:51.300Z,17.10
2018-08-22T03:54:55.547Z,17.10
2018-08-22T03:57:59.702Z,16.90
2018-08-22T04:01:04.107Z,17.00
2018-08-22T04:04:08.255Z,17.00
2018-08-22T04:07:12.338Z,17.00
2018-08-22T04:10:16.470Z,17.00
2018-08-22T04:13:20.818Z,17.00
2018-08-22T04:16:25.036Z,17.10
2018-08-22T04:19:29.193Z,17.20
2018-08-22T04:22:33.410Z,17.20
2018-08-22T04:25:37.525Z,17.10
2018-08-22T04:28:41.904Z,17.00
2018-08-22T04:31:46.095Z,16.90
2018-08-22T04:34:50.223Z,16.90
2018-08-22T04:37:54.583Z,16.90
2018-08-22T04:40:58.735Z,16.80
2018-08-22T04:44:02.922Z,16.90
2018-08-22T04:47:07.116Z,16.90
2018-08-22T04:50:11.266Z,16.90
2018-08-22T04:53:15.419Z,17.00
2018-08-22T04:56:19.579Z,17.10
2018-08-22T04:59:23.841Z,17.20
2018-08-22T05:02:28.653Z,17.10
2018-08-22T05:05:33.441Z,17.10
2018-08-22T05:08:37.602Z,17.10
2018-08-22T05:11:41.737Z,17.10
2018-08-22T05:14:45.994Z,17.10
2018-08-22T05:17:50.199Z,17.20
2018-08-22T05:20:54.707Z,17.20
2018-08-22T05:23:58.906Z,17.30
2018-08-22T05:27:03.628Z,17.30
2018-08-22T05:30:07.940Z,17.40
2018-08-22T05:33:12.047Z,17.40
2018-08-22T05:36:16.174Z,17.40
2018-08-22T05:39:20.445Z,17.40
2018-08-22T05:42:25.514Z,17.40
2018-08-22T05:45:30.207Z,17.40
2018-08-22T05:48:34.565Z,17.50
2018-08-22T05:51:38.730Z,17.60
2018-08-22T05:54:42.941Z,17.70
2018-08-22T05:57:47.144Z,17.60
2018-08-22T06:00:51.383Z,17.60
2018-08-22T06:03:55.767Z,17.70
2018-08-22T06:06:59.918Z,17.70
2018-08-22T06:10:04.542Z,17.70
2018-08-22T06:13:08.688Z,17.80
2018-08-22T06:16:12.924Z,17.90
2018-08-22T06:19:17.105Z,18.00
2018-08-22T06:22:21.279Z,18.20
2018-08-22T06:25:25.685Z,18.20
2018-08-22T06:28:29.823Z,18.10
2018-08-22T06:31:33.956Z,18.00
2018-08-22T06:34:38.120Z,17.90
2018-08-22T06:37:42.314Z,18.00
2018-08-22T06:40:46.430Z,17.90
2018-08-22T06:43:50.659Z,18.00
2018-08-22T06:46:55.201Z,18.20
2018-08-22T06:49:59.408Z,18.30
2018-08-22T06:53:03.586Z,18.30
2018-08-22T06:56:07.809Z,18.40
2018-08-22T06:59:11.994Z,18.30
2018-08-22T07:02:16.126Z,18.60
2018-08-22T07:05:20.272Z,19.10
2018-08-22T07:08:24.463Z,19.50
2018-08-22T07:11:28.597Z,20.80
2018-08-22T07:14:35.733Z,21.90
2018-08-22T07:17:39.860Z,23.20
2018-08-22T07:20:44.070Z,23.90
2018-08-22T07:23:48.201Z,24.30
2018-08-22T07:26:52.606Z,24.40
2018-08-22T07:29:56.835Z,25.30
2018-08-22T07:33:00.945Z,26.90
2018-08-22T07:36:05.640Z,26.50
2018-08-22T07:39:12.730Z,27.70
2018-08-22T07:42:16.867Z,27.50
2018-08-22T07:45:21.003Z,27.00
2018-08-22T07:48:25.162Z,27.00
2018-08-22T07:51:29.260Z,26.70
2018-08-22T07:54:39.642Z,26.30
2018-08-22T07:57:43.754Z,25.30
2018-08-22T08:00:47.879Z,24.80
2018-08-22T08:03:52.125Z,25.50
2018-08-22T08:06:56.289Z,25.90
2018-08-22T08:10:00.718Z,26.20
2018-08-22T08:13:13.674Z,27.20
2018-08-22T08:16:17.856Z,28.00
2018-08-22T08:19:22.022Z,26.70
2018-08-22T08:22:26.232Z,26.70
2018-08-22T08:25:30.354Z,27.50
2018-08-22T08:28:34.570Z,28.80
2018-08-22T08:31:38.850Z,30.10
2018-08-22T08:34:43.406Z,30.40
2018-08-22T08:37:47.605Z,31.20
2018-08-22T08:40:51.819Z,32.00
2018-08-22T08:43:56.109Z,31.70
2018-08-22T08:47:00.251Z,30.10
2018-08-22T08:50:04.468Z,29.10
2018-08-22T08:53:08.638Z,28.50
2018-08-22T08:56:12.842Z,29.20
2018-08-22T08:59:17.129Z,29.10
2018-08-22T09:02:21.368Z,30.20
2018-08-22T09:05:25.556Z,30.60
2018-08-22T09:08:29.724Z,31.10
2018-08-22T09:11:33.978Z,30.40
2018-08-22T09:14:38.565Z,30.00
2018-08-22T09:17:42.847Z,30.00
2018-08-22T09:20:47.031Z,29.90
2018-08-22T09:23:51.972Z,31.20
2018-08-22T09:26:56.445Z,32.00
2018-08-22T09:30:00.600Z,33.10
2018-08-22T09:33:05.276Z,33.60
2018-08-22T09:36:09.462Z,32.80
2018-08-22T09:39:14.346Z,32.20
2018-08-22T09:42:18.614Z,33.10
2018-08-22T09:45:22.752Z,34.20
2018-08-22T09:48:28.374Z,34.80
2018-08-22T09:51:32.596Z,35.00
2018-08-22T09:54:50.998Z,35.60
2018-08-22T09:57:55.348Z,35.60
2018-08-22T10:01:04.728Z,34.70
2018-08-22T10:04:08.930Z,34.60
2018-08-22T10:07:13.187Z,33.10
2018-08-22T10:10:17.208Z,32.80
2018-08-22T10:13:21.417Z,31.50
2018-08-22T10:16:26.930Z,29.60
2018-08-22T10:19:32.058Z,29.40
2018-08-22T10:22:36.113Z,29.30
2018-08-22T10:25:40.243Z,29.40
2018-08-22T10:28:44.382Z,31.30
2018-08-22T10:31:48.549Z,31.70
2018-08-22T10:34:52.760Z,31.70
2018-08-22T10:37:56.980Z,31.20
2018-08-22T10:41:01.127Z,31.60
2018-08-22T10:44:05.860Z,31.90
2018-08-22T10:47:10.033Z,32.50
2018-08-22T10:50:14.161Z,31.10
2018-08-22T10:53:18.306Z,30.70
2018-08-22T10:56:22.464Z,30.40
2018-08-22T10:59:26.638Z,31.40
2018-08-22T11:02:30.832Z,31.60
2018-08-22T11:05:34.937Z,32.40
2018-08-22T11:08:39.170Z,32.50
2018-08-22T11:11:43.329Z,33.50
2018-08-22T11:14:47.512Z,32.60
2018-08-22T11:17:55.476Z,31.50
2018-08-22T11:21:10.818Z,32.00
2018-08-22T11:24:26.340Z,33.00
2018-08-22T11:27:41.832Z,33.20
2018-08-22T11:30:57.646Z,31.60
2018-08-22T11:34:13.098Z,29.90
2018-08-22T11:37:18.125Z,29.50
2018-08-22T11:40:22.312Z,29.80
2018-08-22T11:43:26.472Z,30.30
2018-08-22T11:46:30.680Z,29.60
2018-08-22T11:49:36.987Z,28.90
2018-08-22T11:52:42.340Z,29.00
2018-08-22T11:55:46.977Z,29.30
2018-08-22T11:58:51.075Z,29.60
2018-08-22T12:01:55.469Z,29.60
2018-08-22T12:04:59.632Z,28.70
2018-08-22T12:08:06.727Z,28.40
2018-08-22T12:11:10.923Z,28.50
2018-08-22T12:14:15.058Z,28.50
2018-08-22T12:17:19.393Z,28.60
2018-08-22T12:20:23.577Z,28.90
2018-08-22T12:23:27.796Z,28.80
2018-08-22T12:26:31.871Z,28.90
2018-08-22T12:29:36.029Z,29.00
2018-08-22T12:32:40.156Z,28.80
2018-08-22T12:35:44.310Z,28.90
2018-08-22T12:38:48.441Z,28.90
2018-08-22T12:41:52.720Z,28.90
2018-08-22T12:44:57.059Z,28.70
2018-08-22T12:48:01.250Z,28.70
2018-08-22T12:51:05.835Z,28.70
2018-08-22T12:54:10.034Z,28.80
2018-08-22T12:57:14.456Z,28.90
2018-08-22T13:00:18.687Z,29.10
2018-08-22T13:03:23.250Z,29.10
2018-08-22T13:06:28.484Z,29.00
2018-08-22T13:09:33.512Z,29.10
2018-08-22T13:12:37.685Z,29.00
2018-08-22T13:15:41.895Z,29.00
2018-08-22T13:18:46.128Z,29.00
2018-08-22T13:21:50.308Z,29.10
2018-08-22T13:24:54.532Z,29.50
2018-08-22T13:27:58.653Z,29.50
2018-08-22T13:31:02.780Z,29.40
2018-08-22T13:34:07.015Z,29.40
2018-08-22T13:37:11.126Z,29.50
2018-08-22T13:40:15.402Z,29.70
2018-08-22T13:43:19.538Z,29.60
2018-08-22T13:46:23.682Z,29.60
2018-08-22T13:49:27.830Z,29.10
2018-08-22T13:52:31.957Z,28.90
2018-08-22T13:55:36.399Z,28.80
2018-08-22T13:58:40.600Z,28.70
2018-08-22T14:01:44.764Z,28.80
2018-08-22T14:04:48.943Z,29.10
2018-08-22T14:07:53.352Z,29.30
2018-08-22T14:10:57.545Z,29.30
2018-08-22T14:14:01.758Z,29.30
2018-08-22T14:17:05.908Z,29.30
2018-08-22T14:20:11.241Z,29.30
2018-08-22T14:23:15.427Z,29.50
2018-08-22T14:26:19.540Z,29.70
2018-08-22T14:29:23.779Z,29.80
2018-08-22T14:32:27.895Z,29.50
2018-08-22T14:35:32.057Z,29.50
2018-08-22T14:38:36.213Z,29.60
2018-08-22T14:41:40.540Z,29.80
2018-08-22T14:44:44.712Z,29.90
2018-08-22T14:47:48.867Z,30.10
2018-08-22T14:50:53.178Z,29.90
2018-08-22T14:53:57.370Z,29.90
2018-08-22T14:57:01.980Z,29.90
2018-08-22T15:00:06.718Z,30.10
2018-08-22T15:03:11.309Z,30.10
2018-08-22T15:06:15.666Z,30.20
2018-08-22T15:09:21.064Z,30.40
2018-08-22T15:12:25.227Z,30.70
2018-08-22T15:15:29.514Z,30.80
2018-08-22T15:18:33.703Z,30.90
2018-08-22T15:21:37.994Z,30.80
2018-08-22T15:24:42.589Z,30.70
2018-08-22T15:27:46.830Z,30.50
2018-08-22T15:30:51.514Z,30.50
2018-08-22T15:33:55.837Z,30.60
2018-08-22T15:37:00.372Z,30.60
2018-08-22T15:40:05.526Z,30.50
2018-08-22T15:43:09.832Z,30.50
2018-08-22T15:46:14.031Z,30.40
2018-08-22T15:49:18.409Z,30.30
2018-08-22T15:52:23.490Z,30.40
2018-08-22T15:55:27.671Z,30.40
2018-08-22T15:58:32.473Z,30.40
2018-08-22T16:01:36.786Z,30.30
2018-08-22T16:04:52.659Z,30.40
2018-08-22T16:07:56.997Z,30.40
2018-08-22T16:11:05.435Z,30.40
2018-08-22T16:14:09.614Z,30.30
2018-08-22T16:17:13.996Z,30.20
2018-08-22T16:20:18.414Z,30.10
2018-08-22T16:23:24.886Z,30.10
2018-08-22T16:26:29.334Z,30.00
2018-08-22T16:29:33.525Z,29.90
2018-08-22T16:32:37.717Z,29.70
2018-08-22T16:35:42.606Z,29.70
2018-08-22T16:38:47.001Z,29.70
2018-08-22T16:41:51.134Z,29.60
2018-08-22T16:44:55.415Z,29.40
2018-08-22T16:47:59.654Z,29.30
2018-08-22T16:51:04.858Z,29.10
2018-08-22T16:54:09.623Z,29.10
2018-08-22T16:57:13.819Z,29.00
2018-08-22T17:00:24.728Z,29.00
2018-08-22T17:03:29.133Z,29.00
2018-08-22T17:06:33.297Z,29.00
2018-08-22T17:09:37.453Z,29.00
2018-08-22T17:12:44.427Z,28.90
2018-08-22T17:15:48.635Z,28.90
2018-08-22T17:18:53.406Z,28.80
2018-08-22T17:21:57.562Z,28.80
2018-08-22T17:25:01.820Z,28.70
2018-08-22T17:28:06.237Z,28.60
2018-08-22T17:31:11.397Z,28.50
2018-08-22T17:34:15.600Z,28.50
2018-08-22T17:37:19.877Z,28.40
2018-08-22T17:40:24.021Z,28.30
2018-08-22T17:43:28.206Z,28.20
2018-08-22T17:46:39.042Z,28.20
2018-08-22T17:49:49.021Z,28.10
2018-08-22T17:52:53.458Z,28.00
2018-08-22T17:55:57.618Z,28.10
2018-08-22T17:59:01.781Z,28.00
2018-08-22T18:02:05.993Z,27.90
2018-08-22T18:05:10.693Z,27.80
2018-08-22T18:08:15.538Z,27.80
2018-08-22T18:11:20.563Z,27.70
2018-08-22T18:14:25.141Z,27.70
2018-08-22T18:17:29.340Z,27.70
2018-08-22T18:20:37.931Z,27.70
2018-08-22T18:23:59.215Z,27.60
2018-08-22T18:27:05.637Z,27.40
2018-08-22T18:30:11.991Z,27.20
2018-08-22T18:33:16.207Z,26.90
2018-08-22T18:36:21.259Z,26.80
2018-08-22T18:39:25.831Z,26.70
2018-08-22T18:42:30.002Z,26.60
2018-08-22T18:45:34.401Z,26.50
2018-08-22T18:48:38.886Z,26.30
2018-08-22T18:51:43.224Z,26.20
2018-08-22T18:54:47.375Z,26.00
2018-08-22T18:57:52.025Z,25.80
2018-08-22T19:00:56.316Z,25.70
2018-08-22T19:04:00.570Z,25.50
2018-08-22T19:07:05.241Z,25.40
2018-08-22T19:10:09.558Z,25.30
2018-08-22T19:13:20.872Z,25.10
2018-08-22T19:16:25.205Z,24.90
2018-08-22T19:19:30.304Z,24.80
2018-08-22T19:22:34.472Z,24.60
2018-08-22T19:25:38.690Z,24.50
2018-08-22T19:28:54.404Z,24.30
2018-08-22T19:31:58.759Z,24.20
2018-08-22T19:35:02.995Z,24.10
2018-08-22T19:38:07.638Z,24.00
2018-08-22T19:41:23.166Z,23.90
2018-08-22T19:44:27.661Z,23.80
2018-08-22T19:47:31.900Z,23.80
2018-08-22T19:50:36.130Z,23.70
2018-08-22T19:53:58.935Z,23.50
2018-08-22T19:57:03.122Z,23.30
2018-08-22T20:00:10.913Z,23.30
2018-08-22T20:03:18.620Z,23.30
2018-08-22T20:06:23.290Z,23.20
2018-08-22T20:09:27.454Z,23.20
2018-08-22T20:12:51.627Z,23.10
2018-08-22T20:15:56.023Z,23.00
2018-08-22T20:19:01.521Z,23.00
2018-08-22T20:22:06.834Z,22.90
2018-08-22T20:25:11.764Z,22.70
2018-08-22T20:28:15.976Z,22.70
2018-08-22T20:31:20.230Z,22.80
2018-08-22T20:34:24.481Z,22.80
2018-08-22T20:37:29.141Z,22.80
2018-08-22T20:40:33.369Z,22.70
2018-08-22T20:43:37.998Z,22.40
2018-08-22T20:46:44.335Z,22.20
2018-08-22T20:49:49.576Z,22.10
2018-08-22T20:52:58.059Z,22.00
2018-08-22T20:56:02.262Z,22.00
2018-08-22T20:59:06.459Z,21.90
2018-08-22T21:02:10.629Z,21.70
2018-08-22T21:05:15.659Z,21.60
2018-08-22T21:08:19.812Z,21.50
2018-08-22T21:11:24.003Z,21.30
2018-08-22T21:14:29.996Z,21.20
2018-08-22T21:17:34.542Z,21.10
2018-08-22T21:20:38.876Z,21.00
2018-08-22T21:23:43.045Z,21.00
2018-08-22T21:26:47.845Z,21.00
2018-08-22T21:29:52.025Z,21.10
2018-08-22T21:32:56.279Z,21.10
2018-08-22T21:36:00.490Z,21.10
2018-08-22T21:39:11.162Z,21.00
2018-08-22T21:42:19.601Z,20.80
2018-08-22T21:45:23.666Z,20.60
2018-08-22T21:48:27.831Z,20.50
2018-08-22T21:51:32.008Z,20.50
2018-08-22T21:54:36.191Z,20.40
2018-08-22T21:57:40.562Z,20.20
2018-08-22T22:00:44.798Z,20.10
2018-08-22T22:03:48.988Z,20.10
2018-08-22T22:06:53.867Z,20.10
2018-08-22T22:10:02.255Z,20.10
2018-08-22T22:13:06.459Z,19.90
2018-08-22T22:16:10.658Z,19.90
2018-08-22T22:19:14.870Z,19.80
2018-08-22T22:22:19.007Z,19.70
2018-08-22T22:25:23.170Z,19.60
2018-08-22T22:28:31.646Z,19.60
2018-08-22T22:31:35.831Z,19.50
2018-08-22T22:34:40.131Z,19.40
2018-08-22T22:37:44.226Z,19.30
2018-08-22T22:40:48.394Z,19.20
2018-08-22T22:43:52.562Z,19.10
2018-08-22T22:46:56.738Z,19.10
2018-08-22T22:50:02.215Z,19.00
2018-08-22T22:53:06.658Z,19.00
2018-08-22T22:56:10.849Z,18.90
2018-08-22T22:59:14.990Z,18.90
2018-08-22T23:02:20.510Z,18.70
2018-08-22T23:05:28.947Z,18.70
2018-08-22T23:08:33.203Z,18.60
2018-08-22T23:11:37.315Z,18.60
2018-08-22T23:14:41.390Z,18.60
2018-08-22T23:17:47.676Z,18.60
2018-08-22T23:20:53.735Z,18.50
2018-08-22T23:23:57.919Z,18.50
2018-08-22T23:27:02.136Z,18.50
2018-08-22T23:30:07.090Z,18.50
2018-08-22T23:33:11.234Z,18.40
2018-08-22T23:36:15.355Z,18.40
2018-08-22T23:39:21.587Z,18.50
2018-08-22T23:42:25.702Z,18.40
2018-08-22T23:45:29.858Z,18.20
2018-08-22T23:48:34.439Z,18.10
2018-08-22T23:51:38.661Z,18.00
2018-08-22T23:54:45.658Z,18.00
2018-08-22T23:57:52.980Z,17.90
